Time,TemperatureF,DewpointF,PressureIn,WindDirection,WindDirectionDegrees,WindSpeedMPH,WindSpeedGustMPH,Humidity,HourlyPrecipIn,Conditions,Clouds,dailyrainin,SoftwareType,DateUTC
2013-02-17 00:03:00,34.1,26.0,29.84,NE,56,2.0,4.0,72,0.00,,---,0.00,VWS V13.01,2013-02-17 07:03:00,
2013-02-17 00:08:00,33.8,26.1,29.84,ENE,71,0.0,3.0,73,0.00,,---,0.00,VWS V13.01,2013-02-17 07:08:00,
2013-02-17 00:13:00,33.5,25.8,29.84,East,86,1.0,5.0,73,0.00,,---,0.00,VWS V13.01,2013-02-17 07:13:00,
2013-02-17 00:19:00,33.4,25.0,29.82,ENE,63,0.0,1.0,71,0.00,,---,0.00,VWS V13.01,2013-02-17 07:19:00,
2013-02-17 00:24:00,33.4,24.7,29.82,ENE,70,0.0,3.0,70,0.00,,---,0.00,VWS V13.01,2013-02-17 07:24:00,
2013-02-17 00:29:00,33.4,24.3,29.82,NE,46,0.0,3.0,69,0.00,,---,0.00,VWS V13.01,2013-02-17 07:29:00,
2013-02-17 00:34:00,33.4,24.3,29.81,ENE,72,2.0,3.0,69,0.00,,---,0.00,VWS V13.01,2013-02-17 07:34:00,
2013-02-17 00:39:00,33.2,24.1,29.81,ENE,69,1.0,2.0,69,0.00,,---,0.00,VWS V13.01,2013-02-17 07:39:00,
2013-02-17 00:44:00,33.2,24.5,29.81,ENE,69,0.0,0.0,70,0.00,,---,0.00,VWS V13.01,2013-02-17 07:44:00,
2013-02-17 00:49:00,33.1,24.4,29.82,ENE,69,0.0,0.0,70,0.00,,---,0.00,VWS V13.01,2013-02-17 07:49:00,
2013-02-17 00:54:00,32.9,24.5,29.82,ENE,69,0.0,0.0,71,0.00,,---,0.00,VWS V13.01,2013-02-17 07:54:00,
2013-02-17 00:59:00,32.8,24.1,29.82,NNE,21,0.0,3.0,70,0.00,,---,0.00,VWS V13.01,2013-02-17 07:59:00,
2013-02-17 01:04:00,32.8,24.1,29.83,NNE,21,0.0,0.0,70,0.00,,---,0.00,VWS V13.01,2013-02-17 08:04:00,
2013-02-17 01:09:00,32.8,23.8,29.83,SW,220,0.0,1.0,69,0.00,,---,0.00,VWS V13.01,2013-02-17 08:09:00,
2013-02-17 01:14:00,32.8,24.5,29.83,SW,220,0.0,0.0,71,0.00,,---,0.00,VWS V13.01,2013-02-17 08:14:00,
2013-02-17 01:19:00,32.8,24.1,29.82,SW,220,0.0,0.0,70,0.00,,---,0.00,VWS V13.01,2013-02-17 08:19:00,
2013-02-17 01:24:00,32.8,23.4,29.82,NNE,22,0.0,4.0,68,0.00,,---,0.00,VWS V13.01,2013-02-17 08:24:00,
2013-02-17 01:30:00,32.9,23.5,29.82,North,5,0.0,4.0,68,0.00,,---,0.00,VWS V13.01,2013-02-17 08:30:00,
2013-02-17 01:35:00,33.1,24.0,29.82,North,10,0.0,2.0,69,0.00,,---,0.00,VWS V13.01,2013-02-17 08:35:00,
2013-02-17 01:40:00,33.2,23.8,29.82,East,95,2.0,5.0,68,0.00,,---,0.00,VWS V13.01,2013-02-17 08:40:00,
2013-02-17 01:45:00,33.4,24.0,29.82,NNE,24,0.0,3.0,68,0.00,,---,0.00,VWS V13.01,2013-02-17 08:45:00,
2013-02-17 01:50:00,33.4,24.0,29.81,ESE,117,0.0,1.0,68,0.00,,---,0.00,VWS V13.01,2013-02-17 08:50:00,
2013-02-17 01:55:00,33.4,24.3,29.81,ESE,117,0.0,0.0,69,0.00,,---,0.00,VWS V13.01,2013-02-17 08:55:00,
2013-02-17 02:00:00,33.4,24.0,29.81,ESE,105,0.0,2.0,68,0.00,,---,0.00,VWS V13.01,2013-02-17 09:00:00,
2013-02-17 02:05:00,33.4,24.0,29.81,East,96,1.0,2.0,68,0.00,,---,0.00,VWS V13.01,2013-02-17 09:05:00,
2013-02-17 02:10:00,33.4,24.3,29.81,East,95,0.0,0.0,69,0.00,,---,0.00,VWS V13.01,2013-02-17 09:10:00,
2013-02-17 02:15:00,33.4,24.7,29.81,East,82,0.0,2.0,70,0.00,,---,0.00,VWS V13.01,2013-02-17 09:15:00,
2013-02-17 02:20:00,33.2,24.8,29.79,East,82,0.0,3.0,71,0.00,,---,0.00,VWS V13.01,2013-02-17 09:20:00,
2013-02-17 02:25:00,33.1,25.1,29.79,East,82,0.0,0.0,72,0.00,,---,0.00,VWS V13.01,2013-02-17 09:25:00,
2013-02-17 02:30:00,32.9,24.9,29.79,East,82,0.0,0.0,72,0.00,,---,0.00,VWS V13.01,2013-02-17 09:30:00,
2013-02-17 02:35:00,32.7,25.0,29.79,East,82,0.0,0.0,73,0.00,,---,0.00,VWS V13.01,2013-02-17 09:35:00,
2013-02-17 02:40:00,32.5,25.1,29.79,East,82,0.0,0.0,74,0.00,,---,0.00,VWS V13.01,2013-02-17 09:40:00,
2013-02-17 02:46:00,32.4,25.0,29.81,East,82,0.0,0.0,74,0.00,,---,0.00,VWS V13.01,2013-02-17 09:46:00,
2013-02-17 02:51:00,32.2,25.2,29.81,East,82,0.0,1.0,75,0.00,,---,0.00,VWS V13.01,2013-02-17 09:51:00,
2013-02-17 02:56:00,32.2,25.5,29.81,East,82,0.0,0.0,76,0.00,,---,0.00,VWS V13.01,2013-02-17 09:56:00,
2013-02-17 03:01:00,32.1,25.4,29.80,East,82,0.0,0.0,76,0.00,,---,0.00,VWS V13.01,2013-02-17 10:01:00,
2013-02-17 03:06:00,32.1,25.7,29.80,East,96,4.0,5.0,77,0.00,,---,0.00,VWS V13.01,2013-02-17 10:06:00,
2013-02-17 03:11:00,31.9,26.4,29.80,WSW,240,0.0,3.0,80,0.00,,---,0.00,VWS V13.01,2013-02-17 10:11:00,
2013-02-17 03:16:00,31.8,26.6,29.80,WSW,240,0.0,1.0,81,0.00,,---,0.00,VWS V13.01,2013-02-17 10:16:00,
2013-02-17 03:21:00,31.5,26.6,29.80,WSW,240,0.0,0.0,82,0.00,,---,0.00,VWS V13.01,2013-02-17 10:21:00,
2013-02-17 03:26:00,31.2,26.6,29.80,SE,130,0.0,1.0,83,0.00,,---,0.00,VWS V13.01,2013-02-17 10:26:00,
2013-02-17 03:31:00,31.0,25.6,29.80,North,5,0.0,2.0,80,0.00,,---,0.00,VWS V13.01,2013-02-17 10:31:00,
2013-02-17 03:36:00,30.9,24.5,29.80,ENE,68,1.0,5.0,77,0.00,,---,0.00,VWS V13.01,2013-02-17 10:36:00,
2013-02-17 03:41:00,30.9,24.2,29.80,NNW,327,1.0,5.0,76,0.00,,---,0.00,VWS V13.01,2013-02-17 10:41:00,
2013-02-17 03:46:00,30.9,23.0,29.82,East,85,0.0,3.0,72,0.00,,---,0.00,VWS V13.01,2013-02-17 10:46:00,
2013-02-17 03:51:00,30.9,22.3,29.82,East,90,1.0,1.0,70,0.00,,---,0.00,VWS V13.01,2013-02-17 10:51:00,
2013-02-17 03:56:00,30.9,22.6,29.82,East,87,0.0,0.0,71,0.00,,---,0.00,VWS V13.01,2013-02-17 10:56:00,
2013-02-17 04:01:00,30.6,22.0,29.81,NNE,19,0.0,0.0,70,0.00,,---,0.00,VWS V13.01,2013-02-17 11:01:00,
2013-02-17 04:07:00,30.4,21.5,29.81,NNE,19,0.0,0.0,69,0.00,,---,0.00,VWS V13.01,2013-02-17 11:07:00,
2013-02-17 04:12:00,30.4,22.1,29.81,NNE,19,0.0,1.0,71,0.00,,---,0.00,VWS V13.01,2013-02-17 11:12:00,
2013-02-17 04:17:00,30.3,21.4,29.84,SSW,209,0.0,0.0,69,0.00,,---,0.00,VWS V13.01,2013-02-17 11:17:00,
2013-02-17 04:22:00,30.3,22.0,29.84,SSW,209,0.0,0.0,71,0.00,,---,0.00,VWS V13.01,2013-02-17 11:22:00,
2013-02-17 04:27:00,30.1,21.9,29.84,ENE,78,0.0,0.0,71,0.00,,---,0.00,VWS V13.01,2013-02-17 11:27:00,
2013-02-17 04:32:00,30.0,22.1,29.84,ENE,78,0.0,0.0,72,0.00,,---,0.00,VWS V13.01,2013-02-17 11:32:00,
2013-02-17 04:37:00,29.8,21.9,29.84,ENE,78,0.0,0.0,72,0.00,,---,0.00,VWS V13.01,2013-02-17 11:37:00,
2013-02-17 04:42:00,29.8,22.5,29.84,ENE,78,0.0,0.0,74,0.00,,---,0.00,VWS V13.01,2013-02-17 11:42:00,
2013-02-17 04:47:00,29.7,22.1,29.83,ENE,78,0.0,0.0,73,0.00,,---,0.00,VWS V13.01,2013-02-17 11:47:00,
2013-02-17 04:52:00,29.5,22.2,29.83,ENE,78,0.0,0.0,74,0.00,,---,0.00,VWS V13.01,2013-02-17 11:52:00,
2013-02-17 04:57:00,29.4,21.8,29.83,ENE,75,0.0,0.0,73,0.00,,---,0.00,VWS V13.01,2013-02-17 11:57:00,
2013-02-17 05:02:00,29.4,20.5,29.83,West,270,0.0,3.0,69,0.00,,---,0.00,VWS V13.01,2013-02-17 12:02:00,
2013-02-17 05:07:00,29.4,20.5,29.83,NNW,348,0.0,3.0,69,0.00,,---,0.00,VWS V13.01,2013-02-17 12:07:00,
2013-02-17 05:12:00,29.3,19.7,29.83,NNW,327,1.0,5.0,67,0.00,,---,0.00,VWS V13.01,2013-02-17 12:12:00,
2013-02-17 05:17:00,29.3,18.6,29.83,ENE,71,6.0,11.0,64,0.00,,---,0.00,VWS V13.01,2013-02-17 12:17:00,
2013-02-17 05:23:00,29.3,18.3,29.83,East,100,4.0,4.0,63,0.00,,---,0.00,VWS V13.01,2013-02-17 12:23:00,
2013-02-17 05:28:00,29.1,17.0,29.83,NE,36,0.0,5.0,60,0.00,,---,0.00,VWS V13.01,2013-02-17 12:28:00,
2013-02-17 05:33:00,29.1,16.6,29.83,NNW,346,1.0,3.0,59,0.00,,---,0.00,VWS V13.01,2013-02-17 12:33:00,
2013-02-17 05:38:00,29.0,16.5,29.83,ENE,74,0.0,2.0,59,0.00,,---,0.00,VWS V13.01,2013-02-17 12:38:00,
2013-02-17 05:43:00,29.0,14.9,29.83,SW,217,1.0,4.0,55,0.00,,---,0.00,VWS V13.01,2013-02-17 12:43:00,
2013-02-17 05:48:00,29.1,15.0,29.83,WNW,283,3.0,7.0,55,0.00,,---,0.00,VWS V13.01,2013-02-17 12:48:00,
2013-02-17 05:53:00,29.3,16.4,29.83,East,90,0.0,3.0,58,0.00,,---,0.00,VWS V13.01,2013-02-17 12:53:00,
2013-02-17 05:58:00,29.0,16.5,29.83,NNE,19,0.0,4.0,59,0.00,,---,0.00,VWS V13.01,2013-02-17 12:58:00,
2013-02-17 06:03:00,28.7,16.6,29.82,ENE,76,0.0,3.0,60,0.00,,---,0.00,VWS V13.01,2013-02-17 13:03:00,
2013-02-17 06:08:00,28.7,16.2,29.82,East,86,0.0,6.0,59,0.00,,---,0.00,VWS V13.01,2013-02-17 13:08:00,
2013-02-17 06:13:00,28.5,16.4,29.82,East,88,0.0,3.0,60,0.00,,---,0.00,VWS V13.01,2013-02-17 13:13:00,
2013-02-17 06:18:00,28.2,16.5,29.84,ESE,117,4.0,6.0,61,0.00,,---,0.00,VWS V13.01,2013-02-17 13:18:00,
2013-02-17 06:24:00,28.4,16.3,29.84,North,349,0.0,4.0,60,0.00,,---,0.00,VWS V13.01,2013-02-17 13:24:00,
2013-02-17 06:29:00,28.4,16.3,29.84,NNW,331,0.0,3.0,60,0.00,,---,0.00,VWS V13.01,2013-02-17 13:29:00,
2013-02-17 06:34:00,28.2,16.5,29.84,East,96,1.0,4.0,61,0.00,,---,0.00,VWS V13.01,2013-02-17 13:34:00,
2013-02-17 06:39:00,28.2,16.5,29.84,NE,37,2.0,6.0,61,0.00,,---,0.00,VWS V13.01,2013-02-17 13:39:00,
2013-02-17 06:44:00,28.1,16.8,29.84,NW,313,0.0,2.0,62,0.00,,---,0.00,VWS V13.01,2013-02-17 13:44:00,
2013-02-17 06:49:00,28.4,15.9,29.88,South,173,1.0,10.0,59,0.00,,---,0.00,VWS V13.01,2013-02-17 13:49:00,
2013-02-17 06:54:00,29.0,16.9,29.88,SE,131,0.0,3.0,60,0.00,,---,0.00,VWS V13.01,2013-02-17 13:54:00,
2013-02-17 06:59:00,29.1,17.7,29.88,SE,131,0.0,0.0,62,0.00,,---,0.00,VWS V13.01,2013-02-17 13:59:00,
2013-02-17 07:04:00,29.1,17.3,29.87,ESE,115,0.0,4.0,61,0.00,,---,0.00,VWS V13.01,2013-02-17 14:04:00,
2013-02-17 07:09:00,29.1,18.1,29.87,ESE,115,0.0,0.0,63,0.00,,---,0.00,VWS V13.01,2013-02-17 14:09:00,
2013-02-17 07:14:00,29.0,17.6,29.87,ENE,60,0.0,2.0,62,0.00,,---,0.00,VWS V13.01,2013-02-17 14:14:00,
2013-02-17 07:19:00,28.8,17.8,29.87,NE,38,0.0,0.0,63,0.00,,---,0.00,VWS V13.01,2013-02-17 14:19:00,
2013-02-17 07:24:00,28.8,17.1,29.87,NE,38,0.0,0.0,61,0.00,,---,0.00,VWS V13.01,2013-02-17 14:24:00,
2013-02-17 07:30:00,29.0,17.2,29.87,NW,306,0.0,5.0,61,0.00,,---,0.00,VWS V13.01,2013-02-17 14:30:00,
2013-02-17 07:35:00,29.3,17.1,29.87,ENE,59,0.0,5.0,60,0.00,,---,0.00,VWS V13.01,2013-02-17 14:35:00,
2013-02-17 07:40:00,29.4,17.6,29.87,North,355,0.0,5.0,61,0.00,,---,0.00,VWS V13.01,2013-02-17 14:40:00,
2013-02-17 07:45:00,29.4,17.6,29.87,NNE,30,0.0,4.0,61,0.00,,---,0.00,VWS V13.01,2013-02-17 14:45:00,
2013-02-17 07:50:00,29.4,16.9,29.88,NNW,343,0.0,10.0,59,0.00,,---,0.00,VWS V13.01,2013-02-17 14:50:00,
2013-02-17 07:55:00,29.5,17.3,29.88,East,87,0.0,4.0,60,0.00,,---,0.00,VWS V13.01,2013-02-17 14:55:00,
2013-02-17 08:00:00,29.5,17.0,29.88,North,5,5.0,7.0,59,0.00,,---,0.00,VWS V13.01,2013-02-17 15:00:00,
2013-02-17 08:06:00,29.7,16.8,29.88,WNW,283,7.0,7.0,58,0.00,,---,0.00,VWS V13.01,2013-02-17 15:06:00,
2013-02-17 08:11:00,29.8,16.8,29.88,ESE,107,2.0,6.0,58,0.00,,---,0.00,VWS V13.01,2013-02-17 15:11:00,
2013-02-17 08:16:00,30.0,16.6,29.89,North,5,2.0,5.0,57,0.00,,---,0.00,VWS V13.01,2013-02-17 15:16:00,
2013-02-17 08:21:00,30.0,16.6,29.89,WNW,289,0.0,9.0,57,0.00,,---,0.00,VWS V13.01,2013-02-17 15:21:00,
2013-02-17 08:26:00,30.1,16.7,29.89,East,79,2.0,3.0,57,0.00,,---,0.00,VWS V13.01,2013-02-17 15:26:00,
2013-02-17 08:31:00,30.1,15.9,29.89,SSE,161,2.0,7.0,55,0.00,,---,0.00,VWS V13.01,2013-02-17 15:31:00,
2013-02-17 08:36:00,30.3,16.1,29.89,SW,219,0.0,6.0,55,0.00,,---,0.00,VWS V13.01,2013-02-17 15:36:00,
2013-02-17 08:41:00,30.3,17.3,29.89,ENE,69,0.0,3.0,58,0.00,,---,0.00,VWS V13.01,2013-02-17 15:41:00,
2013-02-17 08:46:00,30.3,17.7,29.90,NW,321,0.0,2.0,59,0.00,,---,0.00,VWS V13.01,2013-02-17 15:46:00,
2013-02-17 08:51:00,30.3,16.1,29.90,NNW,332,2.0,6.0,55,0.00,,---,0.00,VWS V13.01,2013-02-17 15:51:00,
2013-02-17 08:56:00,30.3,16.9,29.90,NNE,33,2.0,4.0,57,0.00,,---,0.00,VWS V13.01,2013-02-17 15:56:00,
2013-02-17 09:01:00,30.3,15.7,29.90,NNE,24,0.0,4.0,54,0.00,,---,0.00,VWS V13.01,2013-02-17 16:01:00,
2013-02-17 09:06:00,30.3,15.2,29.90,East,86,0.0,3.0,53,0.00,,---,0.00,VWS V13.01,2013-02-17 16:06:00,
2013-02-17 09:11:00,30.3,16.1,29.90,ENE,65,1.0,5.0,55,0.00,,---,0.00,VWS V13.01,2013-02-17 16:11:00,
2013-02-17 09:16:00,30.4,16.2,29.91,NNW,331,1.0,6.0,55,0.00,,---,0.00,VWS V13.01,2013-02-17 16:16:00,
2013-02-17 09:21:00,30.6,15.1,29.91,NNE,26,0.0,3.0,52,0.00,,---,0.00,VWS V13.01,2013-02-17 16:21:00,
2013-02-17 09:26:00,30.7,15.6,29.91,ENE,59,0.0,4.0,53,0.00,,---,0.00,VWS V13.01,2013-02-17 16:26:00,
2013-02-17 09:31:00,30.9,16.2,29.92,NNW,332,2.0,5.0,54,0.00,,---,0.00,VWS V13.01,2013-02-17 16:31:00,
2013-02-17 09:36:00,31.0,16.3,29.92,NE,49,0.0,0.0,54,0.00,,---,0.00,VWS V13.01,2013-02-17 16:36:00,
2013-02-17 09:41:00,31.2,15.2,29.92,NNE,19,3.0,4.0,51,0.00,,---,0.00,VWS V13.01,2013-02-17 16:41:00,
2013-02-17 09:46:00,31.2,16.9,29.91,NNW,327,3.0,8.0,55,0.00,,---,0.00,VWS V13.01,2013-02-17 16:46:00,
2013-02-17 09:51:00,31.2,16.1,29.91,NNE,26,1.0,13.0,53,0.00,,---,0.00,VWS V13.01,2013-02-17 16:51:00,
2013-02-17 09:56:00,31.2,15.2,29.91,NE,49,0.0,6.0,51,0.00,,---,0.00,VWS V13.01,2013-02-17 16:56:00,
2013-02-17 10:01:00,31.3,16.2,29.92,NW,306,6.0,6.0,53,0.00,,---,0.00,VWS V13.01,2013-02-17 17:01:00,
2013-02-17 10:06:00,31.3,15.3,29.92,NE,50,2.0,6.0,51,0.00,,---,0.00,VWS V13.01,2013-02-17 17:06:00,
2013-02-17 10:11:00,31.3,16.6,29.92,NE,50,0.0,4.0,54,0.00,,---,0.00,VWS V13.01,2013-02-17 17:11:00,
2013-02-17 10:16:00,31.3,15.7,29.93,ESE,104,0.0,0.0,52,0.00,,---,0.00,VWS V13.01,2013-02-17 17:16:00,
2013-02-17 10:21:00,31.6,17.3,29.93,East,82,1.0,3.0,55,0.00,,---,0.00,VWS V13.01,2013-02-17 17:21:00,
2013-02-17 10:26:00,31.8,17.5,29.93,ESE,117,0.0,0.0,55,0.00,,---,0.00,VWS V13.01,2013-02-17 17:26:00,
2013-02-17 10:32:00,31.8,17.1,29.92,NNW,331,0.0,0.0,54,0.00,,---,0.00,VWS V13.01,2013-02-17 17:32:00,
2013-02-17 10:37:00,31.9,18.0,29.92,NE,53,2.0,2.0,56,0.00,,---,0.00,VWS V13.01,2013-02-17 17:37:00,
2013-02-17 10:42:00,32.1,17.8,29.92,NNE,19,0.0,0.0,55,0.00,,---,0.00,VWS V13.01,2013-02-17 17:42:00,
2013-02-17 10:47:00,32.1,18.2,29.92,East,86,0.0,1.0,56,0.00,,---,0.00,VWS V13.01,2013-02-17 17:47:00,
2013-02-17 10:52:00,32.2,17.9,29.92,NE,44,0.0,0.0,55,0.00,,---,0.00,VWS V13.01,2013-02-17 17:52:00,
2013-02-17 10:57:00,32.5,17.3,29.92,West,279,4.0,4.0,53,0.00,,---,0.00,VWS V13.01,2013-02-17 17:57:00,
2013-02-17 11:02:00,32.5,16.4,29.92,North,355,0.0,8.0,51,0.00,,---,0.00,VWS V13.01,2013-02-17 18:02:00,
2013-02-17 11:07:00,32.5,16.9,29.92,East,96,4.0,5.0,52,0.00,,---,0.00,VWS V13.01,2013-02-17 18:07:00,
2013-02-17 11:12:00,32.5,17.7,29.92,North,10,0.0,2.0,54,0.00,,---,0.00,VWS V13.01,2013-02-17 18:12:00,
2013-02-17 11:17:00,32.5,16.4,29.92,NNW,332,0.0,5.0,51,0.00,,---,0.00,VWS V13.01,2013-02-17 18:17:00,
2013-02-17 11:22:00,32.7,17.0,29.92,NNW,343,2.0,2.0,52,0.00,,---,0.00,VWS V13.01,2013-02-17 18:22:00,
2013-02-17 11:27:00,32.8,17.1,29.92,WNW,302,4.0,4.0,52,0.00,,---,0.00,VWS V13.01,2013-02-17 18:27:00,
2013-02-17 11:32:00,32.9,16.3,29.92,NNE,22,3.0,5.0,50,0.00,,---,0.00,VWS V13.01,2013-02-17 18:32:00,
2013-02-17 11:37:00,33.1,16.5,29.92,NNE,12,4.0,5.0,50,0.00,,---,0.00,VWS V13.01,2013-02-17 18:37:00,
2013-02-17 11:42:00,33.1,17.0,29.92,West,269,0.0,2.0,51,0.00,,---,0.00,VWS V13.01,2013-02-17 18:42:00,
2013-02-17 11:48:00,33.1,17.4,29.93,North,355,3.0,4.0,52,0.00,,---,0.00,VWS V13.01,2013-02-17 18:48:00,
2013-02-17 11:53:00,33.1,18.3,29.93,NNE,24,0.0,5.0,54,0.00,,---,0.00,VWS V13.01,2013-02-17 18:53:00,
2013-02-17 11:58:00,33.1,17.0,29.93,West,265,5.0,5.0,51,0.00,,---,0.00,VWS V13.01,2013-02-17 18:58:00,
2013-02-17 12:03:00,33.1,18.3,29.93,NNE,24,0.0,4.0,54,0.00,,---,0.00,VWS V13.01,2013-02-17 19:03:00,
2013-02-17 12:08:00,33.2,16.6,29.93,NNE,17,3.0,4.0,50,0.00,,---,0.00,VWS V13.01,2013-02-17 19:08:00,
2013-02-17 12:13:00,33.4,18.6,29.93,NE,44,1.0,2.0,54,0.00,,---,0.00,VWS V13.01,2013-02-17 19:13:00,
2013-02-17 12:18:00,33.4,17.7,29.93,NE,36,3.0,6.0,52,0.00,,---,0.00,VWS V13.01,2013-02-17 19:18:00,
2013-02-17 12:23:00,33.4,17.2,29.93,ESE,109,0.0,5.0,51,0.00,,---,0.00,VWS V13.01,2013-02-17 19:23:00,
2013-02-17 12:28:00,33.5,16.4,29.93,East,82,0.0,4.0,49,0.00,,---,0.00,VWS V13.01,2013-02-17 19:28:00,
2013-02-17 12:33:00,33.7,17.5,29.92,West,272,5.0,5.0,51,0.00,,---,0.00,VWS V13.01,2013-02-17 19:33:00,
2013-02-17 12:38:00,33.8,16.2,29.92,North,11,5.0,11.0,48,0.00,,---,0.00,VWS V13.01,2013-02-17 19:38:00,
2013-02-17 12:43:00,33.8,16.2,29.92,West,269,0.0,4.0,48,0.00,,---,0.00,VWS V13.01,2013-02-17 19:43:00,
2013-02-17 12:48:00,34.0,17.8,29.92,East,80,1.0,2.0,51,0.00,,---,0.00,VWS V13.01,2013-02-17 19:48:00,
2013-02-17 12:53:00,34.3,16.7,29.92,West,281,0.0,5.0,48,0.00,,---,0.00,VWS V13.01,2013-02-17 19:53:00,
2013-02-17 12:58:00,34.3,18.5,29.92,NNW,346,1.0,9.0,52,0.00,,---,0.00,VWS V13.01,2013-02-17 19:58:00,
2013-02-17 13:03:00,34.3,18.5,29.92,NNE,26,1.0,5.0,52,0.00,,---,0.00,VWS V13.01,2013-02-17 20:03:00,
2013-02-17 13:08:00,34.3,19.0,29.92,NE,41,3.0,5.0,53,0.00,,---,0.00,VWS V13.01,2013-02-17 20:08:00,
2013-02-17 13:14:00,34.0,17.3,29.92,NNE,22,0.0,7.0,50,0.00,,---,0.00,VWS V13.01,2013-02-17 20:14:00,
2013-02-17 13:19:00,33.7,17.5,29.93,ESE,119,1.0,3.0,51,0.00,,---,0.00,VWS V13.01,2013-02-17 20:19:00,
2013-02-17 13:24:00,33.7,17.5,29.93,SSW,213,0.0,7.0,51,0.00,,---,0.00,VWS V13.01,2013-02-17 20:24:00,
2013-02-17 13:29:00,33.5,17.3,29.93,South,171,1.0,2.0,51,0.00,,---,0.00,VWS V13.01,2013-02-17 20:29:00,
2013-02-17 13:34:00,33.5,17.3,29.93,ENE,67,1.0,11.0,51,0.00,,---,0.00,VWS V13.01,2013-02-17 20:34:00,
2013-02-17 13:39:00,33.5,17.3,29.93,North,5,0.0,9.0,51,0.00,,---,0.00,VWS V13.01,2013-02-17 20:39:00,
2013-02-17 13:44:00,33.5,17.8,29.93,NNE,12,4.0,6.0,52,0.00,,---,0.00,VWS V13.01,2013-02-17 20:44:00,
2013-02-17 13:49:00,33.4,17.2,29.92,WNW,298,0.0,5.0,51,0.00,,---,0.00,VWS V13.01,2013-02-17 20:49:00,
2013-02-17 13:54:00,33.4,19.0,29.92,West,259,3.0,5.0,55,0.00,,---,0.00,VWS V13.01,2013-02-17 20:54:00,
2013-02-17 14:00:00,33.2,17.9,29.92,SW,227,1.0,9.0,53,0.00,,---,0.00,VWS V13.01,2013-02-17 21:00:00,
2013-02-17 14:05:00,33.2,17.5,29.93,WNW,292,2.0,5.0,52,0.00,,---,0.00,VWS V13.01,2013-02-17 21:05:00,
2013-02-17 14:10:00,33.2,17.0,29.93,WNW,292,0.0,10.0,51,0.00,,---,0.00,VWS V13.01,2013-02-17 21:10:00,
2013-02-17 14:15:00,33.2,17.0,29.93,WNW,298,4.0,9.0,51,0.00,,---,0.00,VWS V13.01,2013-02-17 21:15:00,
2013-02-17 14:20:00,33.1,16.5,29.94,NW,315,4.0,7.0,50,0.00,,---,0.00,VWS V13.01,2013-02-17 21:20:00,
2013-02-17 14:25:00,33.1,18.3,29.94,SW,215,0.0,2.0,54,0.00,,---,0.00,VWS V13.01,2013-02-17 21:25:00,
2013-02-17 14:30:00,33.2,17.5,29.94,NE,40,3.0,6.0,52,0.00,,---,0.00,VWS V13.01,2013-02-17 21:30:00,
2013-02-17 14:35:00,33.2,16.6,29.94,NW,319,2.0,13.0,50,0.00,,---,0.00,VWS V13.01,2013-02-17 21:35:00,
2013-02-17 14:40:00,33.2,17.5,29.94,NNE,26,1.0,4.0,52,0.00,,---,0.00,VWS V13.01,2013-02-17 21:40:00,
2013-02-17 14:45:00,33.4,19.0,29.94,North,355,2.0,6.0,55,0.00,,---,0.00,VWS V13.01,2013-02-17 21:45:00,
2013-02-17 14:50:00,33.4,17.7,29.94,NW,308,0.0,5.0,52,0.00,,---,0.00,VWS V13.01,2013-02-17 21:50:00,
2013-02-17 14:55:00,33.5,18.2,29.94,NNE,31,5.0,6.0,53,0.00,,---,0.00,VWS V13.01,2013-02-17 21:55:00,
2013-02-17 15:00:00,33.5,16.9,29.94,NNE,26,1.0,10.0,50,0.00,,---,0.00,VWS V13.01,2013-02-17 22:00:00,
2013-02-17 15:05:00,33.5,18.2,29.93,North,11,0.0,4.0,53,0.00,,---,0.00,VWS V13.01,2013-02-17 22:05:00,
2013-02-17 15:10:00,33.7,17.5,29.93,NE,56,0.0,3.0,51,0.00,,---,0.00,VWS V13.01,2013-02-17 22:10:00,
2013-02-17 15:15:00,33.7,18.4,29.94,WNW,283,0.0,8.0,53,0.00,,---,0.00,VWS V13.01,2013-02-17 22:15:00,
2013-02-17 15:20:00,33.5,16.9,29.94,North,5,7.0,10.0,50,0.00,,---,0.00,VWS V13.01,2013-02-17 22:20:00,
2013-02-17 15:26:00,33.2,17.9,29.94,West,262,1.0,6.0,53,0.00,,---,0.00,VWS V13.01,2013-02-17 22:26:00,
2013-02-17 15:31:00,33.2,17.5,29.94,NW,312,1.0,10.0,52,0.00,,---,0.00,VWS V13.01,2013-02-17 22:31:00,
2013-02-17 15:36:00,33.2,17.0,29.94,ENE,57,0.0,5.0,51,0.00,,---,0.00,VWS V13.01,2013-02-17 22:36:00,
2013-02-17 15:41:00,33.2,17.9,29.94,North,5,0.0,4.0,53,0.00,,---,0.00,VWS V13.01,2013-02-17 22:41:00,
2013-02-17 15:46:00,33.2,17.5,29.95,ESE,121,0.0,5.0,52,0.00,,---,0.00,VWS V13.01,2013-02-17 22:46:00,
2013-02-17 15:51:00,33.4,18.1,29.95,NNE,13,3.0,3.0,53,0.00,,---,0.00,VWS V13.01,2013-02-17 22:51:00,
2013-02-17 15:56:00,33.2,18.8,29.95,NNE,22,1.0,8.0,55,0.00,,---,0.00,VWS V13.01,2013-02-17 22:56:00,
2013-02-17 16:01:00,33.2,17.5,29.96,NNE,22,0.0,3.0,52,0.00,,---,0.00,VWS V13.01,2013-02-17 23:01:00,
2013-02-17 16:06:00,33.2,17.5,29.96,NNE,33,0.0,5.0,52,0.00,,---,0.00,VWS V13.01,2013-02-17 23:06:00,
2013-02-17 16:12:00,33.2,17.0,29.96,ENE,76,2.0,2.0,51,0.00,,---,0.00,VWS V13.01,2013-02-17 23:12:00,
2013-02-17 16:17:00,33.1,16.5,29.97,West,265,0.0,0.0,50,0.00,,---,0.00,VWS V13.01,2013-02-17 23:17:00,
2013-02-17 16:22:00,33.1,17.4,29.97,NE,45,1.0,4.0,52,0.00,,---,0.00,VWS V13.01,2013-02-17 23:22:00,
2013-02-17 16:27:00,33.1,17.0,29.97,WNW,300,0.0,2.0,51,0.00,,---,0.00,VWS V13.01,2013-02-17 23:27:00,
2013-02-17 16:32:00,33.1,17.0,29.98,SSW,205,0.0,0.0,51,0.00,,---,0.00,VWS V13.01,2013-02-17 23:32:00,
2013-02-17 16:37:00,33.2,17.0,29.98,SW,217,0.0,0.0,51,0.00,,---,0.00,VWS V13.01,2013-02-17 23:37:00,
2013-02-17 16:42:00,33.1,17.0,29.98,ESE,111,0.0,5.0,51,0.00,,---,0.00,VWS V13.01,2013-02-17 23:42:00,
2013-02-17 16:47:00,32.9,17.7,29.99,NNE,32,0.0,1.0,53,0.00,,---,0.00,VWS V13.01,2013-02-17 23:47:00,
2013-02-17 16:52:00,32.9,17.7,29.99,North,10,0.0,0.0,53,0.00,,---,0.00,VWS V13.01,2013-02-17 23:52:00,
2013-02-17 16:57:00,32.8,17.1,29.99,East,86,0.0,0.0,52,0.00,,---,0.00,VWS V13.01,2013-02-17 23:57:00,
2013-02-17 17:02:00,32.8,18.4,29.99,North,9,1.0,1.0,55,0.00,,---,0.00,VWS V13.01,2013-02-18 00:02:00,
2013-02-17 17:07:00,32.7,17.9,29.99,ENE,74,0.0,1.0,54,0.00,,---,0.00,VWS V13.01,2013-02-18 00:07:00,
2013-02-17 17:13:00,32.5,16.4,29.99,ENE,67,1.0,1.0,51,0.00,,---,0.00,VWS V13.01,2013-02-18 00:13:00,
2013-02-17 17:18:00,32.4,18.0,29.99,ENE,76,0.0,0.0,55,0.00,,---,0.00,VWS V13.01,2013-02-18 00:18:00,
2013-02-17 17:23:00,32.4,17.6,29.99,West,281,0.0,4.0,54,0.00,,---,0.00,VWS V13.01,2013-02-18 00:23:00,
2013-02-17 17:28:00,32.2,17.9,29.99,North,5,0.0,1.0,55,0.00,,---,0.00,VWS V13.01,2013-02-18 00:28:00,
2013-02-17 17:33:00,32.1,16.9,30.01,WSW,240,0.0,2.0,53,0.00,,---,0.00,VWS V13.01,2013-02-18 00:33:00,
2013-02-17 17:38:00,32.1,16.9,30.01,NE,41,0.0,1.0,53,0.00,,---,0.00,VWS V13.01,2013-02-18 00:38:00,
2013-02-17 17:43:00,31.9,17.2,30.01,NE,42,0.0,2.0,54,0.00,,---,0.00,VWS V13.01,2013-02-18 00:43:00,
2013-02-17 17:48:00,31.6,20.8,30.02,West,276,2.0,11.0,64,0.00,,---,0.00,VWS V13.01,2013-02-18 00:48:00,
2013-02-17 17:53:00,30.7,21.8,30.02,SW,232,0.0,3.0,69,0.00,,---,0.00,VWS V13.01,2013-02-18 00:53:00,
2013-02-17 17:58:00,29.8,22.2,30.02,West,274,0.0,2.0,73,0.00,,---,0.00,VWS V13.01,2013-02-18 00:58:00,
2013-02-17 18:03:00,29.3,22.4,30.04,West,270,0.0,2.0,75,0.00,,---,0.00,VWS V13.01,2013-02-18 01:03:00,
2013-02-17 18:08:00,28.7,22.4,30.04,West,259,0.0,5.0,77,0.00,,---,0.00,VWS V13.01,2013-02-18 01:08:00,
2013-02-17 18:13:00,28.4,22.4,30.04,SW,235,0.0,1.0,78,0.00,,---,0.00,VWS V13.01,2013-02-18 01:13:00,
2013-02-17 18:19:00,28.1,22.4,30.07,SW,235,0.0,0.0,79,0.00,,---,0.00,VWS V13.01,2013-02-18 01:19:00,
2013-02-17 18:24:00,27.8,22.4,30.07,NNW,329,0.0,0.0,80,0.00,,---,0.00,VWS V13.01,2013-02-18 01:24:00,
2013-02-17 18:29:00,27.8,22.7,30.07,NNW,329,0.0,1.0,81,0.00,,---,0.00,VWS V13.01,2013-02-18 01:29:00,
2013-02-17 18:34:00,27.6,22.5,30.07,NNW,329,0.0,0.0,81,0.00,,---,0.00,VWS V13.01,2013-02-18 01:34:00,
2013-02-17 18:39:00,27.6,22.5,30.07,NNW,329,0.0,0.0,81,0.00,,---,0.00,VWS V13.01,2013-02-18 01:39:00,
2013-02-17 18:44:00,27.5,22.7,30.07,NNW,329,0.0,0.0,82,0.00,,---,0.00,VWS V13.01,2013-02-18 01:44:00,
2013-02-17 18:49:00,27.5,22.7,30.07,NNW,329,0.0,0.0,82,0.00,,---,0.00,VWS V13.01,2013-02-18 01:49:00,
2013-02-17 18:54:00,27.3,22.5,30.07,NNW,331,0.0,0.0,82,0.00,,---,0.00,VWS V13.01,2013-02-18 01:54:00,
2013-02-17 18:59:00,27.3,22.8,30.07,NNW,331,0.0,0.0,83,0.00,,---,0.00,VWS V13.01,2013-02-18 01:59:00,
2013-02-17 19:04:00,27.3,22.8,30.07,NNW,331,0.0,0.0,83,0.00,,---,0.00,VWS V13.01,2013-02-18 02:04:00,
2013-02-17 19:09:00,27.2,22.7,30.07,NNW,331,0.0,0.0,83,0.00,,---,0.00,VWS V13.01,2013-02-18 02:09:00,
2013-02-17 19:14:00,27.2,22.7,30.07,NNW,331,0.0,0.0,83,0.00,,---,0.00,VWS V13.01,2013-02-18 02:14:00,
2013-02-17 19:19:00,27.0,22.5,30.08,NNW,331,0.0,0.0,83,0.00,,---,0.00,VWS V13.01,2013-02-18 02:19:00,
2013-02-17 19:24:00,27.0,22.8,30.08,NNW,331,0.0,0.0,84,0.00,,---,0.00,VWS V13.01,2013-02-18 02:24:00,
2013-02-17 19:29:00,27.0,22.5,30.08,NNW,331,0.0,0.0,83,0.00,,---,0.00,VWS V13.01,2013-02-18 02:29:00,
2013-02-17 19:34:00,26.9,22.4,30.08,NNW,331,0.0,0.0,83,0.00,,---,0.00,VWS V13.01,2013-02-18 02:34:00,
2013-02-17 19:40:00,26.9,22.7,30.08,NNW,331,0.0,0.0,84,0.00,,---,0.00,VWS V13.01,2013-02-18 02:40:00,
2013-02-17 19:45:00,26.7,22.5,30.08,NNW,331,0.0,0.0,84,0.00,,---,0.00,VWS V13.01,2013-02-18 02:45:00,
2013-02-17 19:50:00,26.7,22.5,30.08,NNW,331,0.0,0.0,84,0.00,,---,0.00,VWS V13.01,2013-02-18 02:50:00,
2013-02-17 19:55:00,26.7,22.2,30.08,NNW,331,0.0,0.0,83,0.00,,---,0.00,VWS V13.01,2013-02-18 02:55:00,
2013-02-17 20:00:00,26.7,22.2,30.08,NNW,331,0.0,0.0,83,0.00,,---,0.00,VWS V13.01,2013-02-18 03:00:00,
2013-02-17 20:05:00,26.7,22.2,30.08,NNW,331,0.0,0.0,83,0.00,,---,0.00,VWS V13.01,2013-02-18 03:05:00,
2013-02-17 20:10:00,26.7,22.2,30.08,NNW,331,0.0,0.0,83,0.00,,---,0.00,VWS V13.01,2013-02-18 03:10:00,
2013-02-17 20:15:00,26.7,22.2,30.08,NNW,331,0.0,0.0,83,0.00,,---,0.00,VWS V13.01,2013-02-18 03:15:00,
2013-02-17 20:20:00,26.7,22.0,30.08,NNW,331,0.0,0.0,82,0.00,,---,0.00,VWS V13.01,2013-02-18 03:20:00,
2013-02-17 20:25:00,26.7,22.0,30.08,NNW,331,0.0,0.0,82,0.00,,---,0.00,VWS V13.01,2013-02-18 03:25:00,
2013-02-17 20:30:00,26.7,22.0,30.08,NNW,331,0.0,0.0,82,0.00,,---,0.00,VWS V13.01,2013-02-18 03:30:00,
2013-02-17 20:35:00,26.7,22.0,30.08,NNW,331,0.0,0.0,82,0.00,,---,0.00,VWS V13.01,2013-02-18 03:35:00,
2013-02-17 20:40:00,26.7,21.7,30.08,NNW,331,0.0,0.0,81,0.00,,---,0.00,VWS V13.01,2013-02-18 03:40:00,
2013-02-17 20:45:00,26.7,20.8,30.09,West,271,0.0,2.0,78,0.00,,---,0.00,VWS V13.01,2013-02-18 03:45:00,
2013-02-17 20:50:00,26.9,19.4,30.09,South,183,0.0,2.0,73,0.00,,---,0.00,VWS V13.01,2013-02-18 03:50:00,
2013-02-17 20:55:00,27.0,19.2,30.09,ESE,111,0.0,3.0,72,0.00,,---,0.00,VWS V13.01,2013-02-18 03:55:00,
2013-02-17 21:01:00,27.3,18.8,30.09,ESE,111,0.0,0.0,70,0.00,,---,0.00,VWS V13.01,2013-02-18 04:01:00,
2013-02-17 21:06:00,27.5,19.7,30.09,ESE,111,0.0,1.0,72,0.00,,---,0.00,VWS V13.01,2013-02-18 04:06:00,
2013-02-17 21:11:00,27.6,19.1,30.09,ESE,111,0.0,0.0,70,0.00,,---,0.00,VWS V13.01,2013-02-18 04:11:00,
2013-02-17 21:16:00,27.6,18.4,30.08,ESE,111,0.0,0.0,68,0.00,,---,0.00,VWS V13.01,2013-02-18 04:16:00,
2013-02-17 21:21:00,27.6,18.1,30.08,NE,42,0.0,2.0,67,0.00,,---,0.00,VWS V13.01,2013-02-18 04:21:00,
2013-02-17 21:26:00,27.6,17.4,30.08,WNW,290,0.0,2.0,65,0.00,,---,0.00,VWS V13.01,2013-02-18 04:26:00,
2013-02-17 21:31:00,27.6,17.7,30.09,WNW,290,0.0,0.0,66,0.00,,---,0.00,VWS V13.01,2013-02-18 04:31:00,
2013-02-17 21:36:00,27.8,17.6,30.09,WNW,290,0.0,0.0,65,0.00,,---,0.00,VWS V13.01,2013-02-18 04:36:00,
2013-02-17 21:41:00,27.8,17.9,30.09,WNW,290,0.0,1.0,66,0.00,,---,0.00,VWS V13.01,2013-02-18 04:41:00,
2013-02-17 21:46:00,27.8,17.6,30.09,East,88,0.0,3.0,65,0.00,,---,0.00,VWS V13.01,2013-02-18 04:46:00,
2013-02-17 21:51:00,27.8,17.6,30.09,East,88,0.0,1.0,65,0.00,,---,0.00,VWS V13.01,2013-02-18 04:51:00,
2013-02-17 21:56:00,27.9,17.7,30.09,NNW,345,0.0,3.0,65,0.00,,---,0.00,VWS V13.01,2013-02-18 04:56:00,
2013-02-17 22:00:00,27.9,17.3,30.09,NNE,16,0.0,2.0,64,0.00,,---,0.00,VWS V13.01,2013-02-18 05:00:00,
2013-02-17 22:01:00,27.9,17.0,30.10,NNE,16,0.0,2.0,63,0.00,,---,0.00,VWS V13.01,2013-02-18 05:01:00,
2013-02-17 22:02:00,27.9,17.3,30.10,NNE,16,0.0,0.0,64,0.00,,---,0.00,VWS V13.01,2013-02-18 05:02:00,
2013-02-17 22:07:00,27.9,17.7,30.10,NE,37,0.0,0.0,65,0.00,,---,0.00,VWS V13.01,2013-02-18 05:07:00,
2013-02-17 22:12:00,27.9,18.0,30.10,NE,37,0.0,0.0,66,0.00,,---,0.00,VWS V13.01,2013-02-18 05:12:00,
2013-02-17 22:17:00,27.8,18.3,30.09,NE,37,0.0,0.0,67,0.00,,---,0.00,VWS V13.01,2013-02-18 05:17:00,
2013-02-17 22:22:00,27.8,17.9,30.09,NE,37,0.0,0.0,66,0.00,,---,0.00,VWS V13.01,2013-02-18 05:22:00,
2013-02-17 22:27:00,27.6,18.1,30.09,NE,37,0.0,0.0,67,0.00,,---,0.00,VWS V13.01,2013-02-18 05:27:00,
2013-02-17 22:32:00,27.6,18.1,30.09,NE,37,0.0,0.0,67,0.00,,---,0.00,VWS V13.01,2013-02-18 05:32:00,
2013-02-17 22:37:00,27.6,17.4,30.09,NNE,12,0.0,1.0,65,0.00,,---,0.00,VWS V13.01,2013-02-18 05:37:00,
2013-02-17 22:42:00,27.8,17.9,30.09,SE,126,0.0,0.0,66,0.00,,---,0.00,VWS V13.01,2013-02-18 05:42:00,
2013-02-17 22:47:00,27.8,18.3,30.09,SE,126,0.0,1.0,67,0.00,,---,0.00,VWS V13.01,2013-02-18 05:47:00,
2013-02-17 22:52:00,27.8,18.3,30.09,SE,126,0.0,0.0,67,0.00,,---,0.00,VWS V13.01,2013-02-18 05:52:00,
2013-02-17 22:58:00,27.8,18.3,30.09,NNE,16,0.0,2.0,67,0.00,,---,0.00,VWS V13.01,2013-02-18 05:58:00,
2013-02-17 23:03:00,27.6,17.7,30.09,NNE,16,0.0,0.0,66,0.00,,---,0.00,VWS V13.01,2013-02-18 06:03:00,
2013-02-17 23:08:00,27.6,17.7,30.09,NNE,22,0.0,0.0,66,0.00,,---,0.00,VWS V13.01,2013-02-18 06:08:00,
2013-02-17 23:13:00,27.8,17.6,30.09,East,81,0.0,0.0,65,0.00,,---,0.00,VWS V13.01,2013-02-18 06:13:00,
2013-02-17 23:18:00,27.8,17.2,30.10,WNW,286,0.0,0.0,64,0.00,,---,0.00,VWS V13.01,2013-02-18 06:18:00,
2013-02-17 23:23:00,27.9,17.0,30.10,WSW,246,0.0,0.0,63,0.00,,---,0.00,VWS V13.01,2013-02-18 06:23:00,
2013-02-17 23:28:00,27.9,17.7,30.10,WSW,248,0.0,0.0,65,0.00,,---,0.00,VWS V13.01,2013-02-18 06:28:00,
2013-02-17 23:33:00,27.9,19.4,30.10,WSW,248,0.0,0.0,70,0.00,,---,0.00,VWS V13.01,2013-02-18 06:33:00,
2013-02-17 23:38:00,27.8,20.3,30.10,WSW,239,0.0,1.0,73,0.00,,---,0.00,VWS V13.01,2013-02-18 06:38:00,
2013-02-17 23:43:00,27.5,21.9,30.10,WSW,252,2.0,4.0,79,0.00,,---,0.00,VWS V13.01,2013-02-18 06:43:00,
2013-02-17 23:48:00,27.0,22.0,30.11,WSW,240,0.0,2.0,81,0.00,,---,0.00,VWS V13.01,2013-02-18 06:48:00,
2013-02-17 23:53:00,26.7,22.2,30.11,SW,234,2.0,2.0,83,0.00,,---,0.00,VWS V13.01,2013-02-18 06:53:00,
2013-02-17 23:58:00,26.6,22.4,30.11,WSW,239,1.0,1.0,84,0.00,,---,0.00,VWS V13.01,2013-02-18 06:58:00,